Aviation Digital Data Service (ADDS)

Output produced by METARs form (1825 UTC 16 August 2018)
found at http://www.aviationweather.gov/adds/metars/
 
VYMD 161330Z 36004KT 6000 BKN020 FEW025CB SCT120 32/25 Q1001
TAF VYMD 160500Z 1606/1706 18010KT 7000 BKN020 FEW025CB BKN120 
     TEMPO 1606/1612 22007G14KT 7000 BKN018 FEW020CB BKN110
       
VYYY 161800Z 18003KT 6000 BKN013 FEW018CB OVC090 26/25 Q1005
TAF VYYY 161700Z 1618/1718 20006KT 7000 BKN014 FEW018CB BKN090 
     TEMPO 1618/1624 5000 -RA 
     BECMG 1700/1702 5000 -RA 
     TEMPO 1703/1709 25010G20KT 3000 TSRA BKN010 FEW015CB OVC080 
     TEMPO 1709/1715 5000 -RA